sensor_id;sensor_type;location;lat;lon;timestamp;P1;durP1;ratioP1;P2;durP2;ratioP2
982;SDS011;480;48.124;11.578;2022-10-22T00:01:08;2.73;;;2.10;;
982;SDS011;480;48.124;11.578;2022-10-22T00:03:35;4.60;;;2.70;;
982;SDS011;480;48.124;11.578;2022-10-22T00:06:03;4.03;;;2.47;;
982;SDS011;480;48.124;11.578;2022-10-22T00:08:30;2.70;;;1.70;;
982;SDS011;480;48.124;11.578;2022-10-22T00:10:57;2.50;;;2.30;;
982;SDS011;480;48.124;11.578;2022-10-22T00:13:26;2.80;;;1.93;;
982;SDS011;480;48.124;11.578;2022-10-22T00:15:53;4.27;;;2.23;;
982;SDS011;480;48.124;11.578;2022-10-22T00:18:20;3.00;;;2.00;;
982;SDS011;480;48.124;11.578;2022-10-22T00:20:47;3.83;;;2.37;;
982;SDS011;480;48.124;11.578;2022-10-22T00:23:15;2.57;;;1.87;;
982;SDS011;480;48.124;11.578;2022-10-22T00:25:42;2.03;;;1.83;;
982;SDS011;480;48.124;11.578;2022-10-22T00:28:09;1.83;;;1.50;;
982;SDS011;480;48.124;11.578;2022-10-22T00:30:38;2.53;;;1.67;;
982;SDS011;480;48.124;11.578;2022-10-22T00:33:05;1.20;;;1.10;;
982;SDS011;480;48.124;11.578;2022-10-22T00:35:32;2.00;;;1.77;;
982;SDS011;480;48.124;11.578;2022-10-22T00:37:59;1.17;;;1.07;;
982;SDS011;480;48.124;11.578;2022-10-22T00:40:26;1.67;;;1.50;;
982;SDS011;480;48.124;11.578;2022-10-22T00:42:53;1.30;;;1.20;;
982;SDS011;480;48.124;11.578;2022-10-22T00:45:22;2.13;;;1.93;;
982;SDS011;480;48.124;11.578;2022-10-22T00:47:53;3.03;;;2.00;;
982;SDS011;480;48.124;11.578;2022-10-22T00:50:24;1.53;;;1.40;;
982;SDS011;480;48.124;11.578;2022-10-22T00:52:54;3.00;;;1.73;;
982;SDS011;480;48.124;11.578;2022-10-22T00:55:23;2.30;;;2.07;;
982;SDS011;480;48.124;11.578;2022-10-22T00:57:52;1.93;;;1.50;;
982;SDS011;480;48.124;11.578;2022-10-22T01:00:21;1.30;;;1.20;;
982;SDS011;480;48.124;11.578;2022-10-22T01:02:49;1.27;;;1.17;;
982;SDS011;480;48.124;11.578;2022-10-22T01:05:19;4.20;;;1.10;;
982;SDS011;480;48.124;11.578;2022-10-22T01:07:47;1.90;;;1.40;;
982;SDS011;480;48.124;11.578;2022-10-22T01:10:23;1.57;;;1.10;;
982;SDS011;480;48.124;11.578;2022-10-22T01:13:04;1.27;;;1.00;;
982;SDS011;480;48.124;11.578;2022-10-22T01:15:42;1.10;;;1.00;;
982;SDS011;480;48.124;11.578;2022-10-22T01:18:19;2.63;;;1.20;;
982;SDS011;480;48.124;11.578;2022-10-22T01:20:57;1.40;;;1.30;;
982;SDS011;480;48.124;11.578;2022-10-22T01:26:31;2.27;;;0.90;;
982;SDS011;480;48.124;11.578;2022-10-22T01:29:09;1.10;;;1.00;;
982;SDS011;480;48.124;11.578;2022-10-22T01:31:41;1.47;;;0.97;;
982;SDS011;480;48.124;11.578;2022-10-22T01:34:12;1.67;;;1.03;;
982;SDS011;480;48.124;11.578;2022-10-22T01:36:42;1.43;;;1.33;;
982;SDS011;480;48.124;11.578;2022-10-22T01:39:11;1.47;;;1.20;;
982;SDS011;480;48.124;11.578;2022-10-22T01:41:42;1.63;;;1.53;;
982;SDS011;480;48.124;11.578;2022-10-22T01:44:22;3.17;;;1.17;;
982;SDS011;480;48.124;11.578;2022-10-22T01:46:51;1.97;;;1.33;;
982;SDS011;480;48.124;11.578;2022-10-22T01:49:26;1.30;;;0.90;;
982;SDS011;480;48.124;11.578;2022-10-22T01:52:03;1.80;;;1.20;;
982;SDS011;480;48.124;11.578;2022-10-22T01:54:42;1.13;;;1.03;;
982;SDS011;480;48.124;11.578;2022-10-22T01:57:17;1.10;;;1.00;;
982;SDS011;480;48.124;11.578;2022-10-22T01:59:51;1.17;;;0.90;;
982;SDS011;480;48.124;11.578;2022-10-22T02:02:27;0.83;;;0.83;;
982;SDS011;480;48.124;11.578;2022-10-22T02:05:02;0.73;;;0.73;;
982;SDS011;480;48.124;11.578;2022-10-22T02:07:39;1.77;;;1.10;;
982;SDS011;480;48.124;11.578;2022-10-22T02:10:08;1.10;;;1.00;;
982;SDS011;480;48.124;11.578;2022-10-22T02:12:36;1.00;;;0.90;;
982;SDS011;480;48.124;11.578;2022-10-22T02:15:07;1.67;;;1.43;;
982;SDS011;480;48.124;11.578;2022-10-22T02:17:35;2.30;;;1.10;;
982;SDS011;480;48.124;11.578;2022-10-22T02:20:05;1.40;;;1.00;;
982;SDS011;480;48.124;11.578;2022-10-22T02:22:35;1.60;;;1.20;;
982;SDS011;480;48.124;11.578;2022-10-22T02:25:04;1.13;;;0.97;;
982;SDS011;480;48.124;11.578;2022-10-22T02:27:38;7.13;;;1.10;;
982;SDS011;480;48.124;11.578;2022-10-22T02:30:11;2.20;;;1.00;;
982;SDS011;480;48.124;11.578;2022-10-22T02:32:42;1.77;;;1.10;;
982;SDS011;480;48.124;11.578;2022-10-22T02:35:16;1.73;;;1.30;;
982;SDS011;480;48.124;11.578;2022-10-22T02:37:46;1.37;;;1.27;;
982;SDS011;480;48.124;11.578;2022-10-22T02:40:14;0.90;;;0.90;;
982;SDS011;480;48.124;11.578;2022-10-22T02:42:42;1.23;;;1.00;;
982;SDS011;480;48.124;11.578;2022-10-22T02:45:13;1.70;;;1.20;;
982;SDS011;480;48.124;11.578;2022-10-22T02:47:40;2.13;;;1.10;;
982;SDS011;480;48.124;11.578;2022-10-22T02:50:08;1.57;;;1.00;;
982;SDS011;480;48.124;11.578;2022-10-22T02:52:35;1.43;;;1.33;;
982;SDS011;480;48.124;11.578;2022-10-22T02:55:02;1.40;;;0.70;;
982;SDS011;480;48.124;11.578;2022-10-22T02:57:30;0.87;;;0.87;;
982;SDS011;480;48.124;11.578;2022-10-22T02:59:57;1.43;;;0.80;;
982;SDS011;480;48.124;11.578;2022-10-22T03:02:25;2.93;;;1.13;;
982;SDS011;480;48.124;11.578;2022-10-22T03:04:52;1.83;;;1.10;;
982;SDS011;480;48.124;11.578;2022-10-22T03:07:19;0.83;;;0.80;;
982;SDS011;480;48.124;11.578;2022-10-22T03:09:46;3.30;;;1.30;;
982;SDS011;480;48.124;11.578;2022-10-22T03:12:13;1.67;;;0.80;;
982;SDS011;480;48.124;11.578;2022-10-22T03:14:40;0.87;;;0.83;;
982;SDS011;480;48.124;11.578;2022-10-22T03:17:07;1.20;;;0.90;;
982;SDS011;480;48.124;11.578;2022-10-22T03:19:36;2.30;;;1.10;;
982;SDS011;480;48.124;11.578;2022-10-22T03:22:04;0.80;;;0.80;;
982;SDS011;480;48.124;11.578;2022-10-22T03:24:33;1.27;;;0.87;;
982;SDS011;480;48.124;11.578;2022-10-22T03:27:03;1.20;;;1.10;;
982;SDS011;480;48.124;11.578;2022-10-22T03:29:30;0.80;;;0.80;;
982;SDS011;480;48.124;11.578;2022-10-22T03:32:01;0.93;;;0.80;;
982;SDS011;480;48.124;11.578;2022-10-22T03:34:28;1.17;;;0.80;;
982;SDS011;480;48.124;11.578;2022-10-22T03:36:56;1.10;;;1.00;;
982;SDS011;480;48.124;11.578;2022-10-22T03:39:26;1.43;;;0.90;;
982;SDS011;480;48.124;11.578;2022-10-22T03:41:54;1.37;;;0.80;;
982;SDS011;480;48.124;11.578;2022-10-22T03:44:21;1.20;;;0.80;;
982;SDS011;480;48.124;11.578;2022-10-22T03:46:49;1.17;;;1.10;;
982;SDS011;480;48.124;11.578;2022-10-22T03:49:16;1.37;;;0.73;;
982;SDS011;480;48.124;11.578;2022-10-22T03:51:43;0.83;;;0.60;;
982;SDS011;480;48.124;11.578;2022-10-22T03:54:12;1.20;;;1.03;;
982;SDS011;480;48.124;11.578;2022-10-22T03:56:40;2.93;;;1.00;;
982;SDS011;480;48.124;11.578;2022-10-22T03:59:07;1.50;;;1.40;;
982;SDS011;480;48.124;11.578;2022-10-22T04:01:34;0.80;;;0.80;;
982;SDS011;480;48.124;11.578;2022-10-22T04:04:01;1.37;;;1.03;;
982;SDS011;480;48.124;11.578;2022-10-22T04:06:29;1.10;;;0.93;;
982;SDS011;480;48.124;11.578;2022-10-22T04:08:56;0.80;;;0.80;;
982;SDS011;480;48.124;11.578;2022-10-22T04:11:26;1.37;;;1.27;;
982;SDS011;480;48.124;11.578;2022-10-22T04:13:53;2.40;;;1.00;;
982;SDS011;480;48.124;11.578;2022-10-22T04:16:21;1.37;;;0.87;;
982;SDS011;480;48.124;11.578;2022-10-22T04:18:48;1.03;;;0.80;;
982;SDS011;480;48.124;11.578;2022-10-22T04:21:16;1.03;;;0.93;;
982;SDS011;480;48.124;11.578;2022-10-22T04:23:44;0.60;;;0.60;;
982;SDS011;480;48.124;11.578;2022-10-22T04:26:12;1.00;;;0.90;;
982;SDS011;480;48.124;11.578;2022-10-22T04:28:41;0.60;;;0.60;;
982;SDS011;480;48.124;11.578;2022-10-22T04:31:08;1.23;;;1.00;;
982;SDS011;480;48.124;11.578;2022-10-22T04:33:36;1.50;;;0.83;;
982;SDS011;480;48.124;11.578;2022-10-22T04:36:07;0.80;;;0.80;;
982;SDS011;480;48.124;11.578;2022-10-22T04:38:36;0.63;;;0.63;;
982;SDS011;480;48.124;11.578;2022-10-22T04:41:09;1.00;;;0.90;;
982;SDS011;480;48.124;11.578;2022-10-22T04:43:37;1.17;;;0.97;;
982;SDS011;480;48.124;11.578;2022-10-22T04:46:06;0.70;;;0.70;;
982;SDS011;480;48.124;11.578;2022-10-22T04:48:34;0.90;;;0.90;;
982;SDS011;480;48.124;11.578;2022-10-22T04:51:01;1.30;;;0.70;;
982;SDS011;480;48.124;11.578;2022-10-22T04:53:29;1.13;;;1.00;;
982;SDS011;480;48.124;11.578;2022-10-22T04:56:05;1.37;;;0.90;;
982;SDS011;480;48.124;11.578;2022-10-22T04:58:33;0.83;;;0.83;;
982;SDS011;480;48.124;11.578;2022-10-22T05:01:00;1.37;;;0.70;;
982;SDS011;480;48.124;11.578;2022-10-22T05:03:35;2.50;;;1.10;;
982;SDS011;480;48.124;11.578;2022-10-22T05:06:02;0.50;;;0.50;;
982;SDS011;480;48.124;11.578;2022-10-22T05:08:29;1.27;;;0.60;;
982;SDS011;480;48.124;11.578;2022-10-22T05:10:56;0.93;;;0.67;;
982;SDS011;480;48.124;11.578;2022-10-22T05:13:23;0.80;;;0.77;;
982;SDS011;480;48.124;11.578;2022-10-22T05:15:50;0.60;;;0.60;;
982;SDS011;480;48.124;11.578;2022-10-22T05:18:19;0.50;;;0.50;;
982;SDS011;480;48.124;11.578;2022-10-22T05:20:46;0.90;;;0.60;;
982;SDS011;480;48.124;11.578;2022-10-22T05:23:13;0.50;;;0.50;;
982;SDS011;480;48.124;11.578;2022-10-22T05:25:40;0.87;;;0.60;;
982;SDS011;480;48.124;11.578;2022-10-22T05:28:07;0.80;;;0.50;;
982;SDS011;480;48.124;11.578;2022-10-22T05:30:34;0.60;;;0.57;;
982;SDS011;480;48.124;11.578;2022-10-22T05:33:01;0.80;;;0.80;;
982;SDS011;480;48.124;11.578;2022-10-22T05:35:29;0.90;;;0.87;;
982;SDS011;480;48.124;11.578;2022-10-22T05:37:57;1.10;;;0.57;;
982;SDS011;480;48.124;11.578;2022-10-22T05:40:24;0.60;;;0.60;;
982;SDS011;480;48.124;11.578;2022-10-22T05:42:51;1.00;;;0.77;;
982;SDS011;480;48.124;11.578;2022-10-22T05:45:18;0.60;;;0.53;;
982;SDS011;480;48.124;11.578;2022-10-22T05:47:45;0.60;;;0.60;;
982;SDS011;480;48.124;11.578;2022-10-22T05:50:12;0.40;;;0.40;;
982;SDS011;480;48.124;11.578;2022-10-22T05:52:41;0.60;;;0.60;;
982;SDS011;480;48.124;11.578;2022-10-22T05:55:08;2.00;;;0.97;;
982;SDS011;480;48.124;11.578;2022-10-22T05:57:35;0.50;;;0.43;;
982;SDS011;480;48.124;11.578;2022-10-22T06:00:02;2.80;;;1.23;;
982;SDS011;480;48.124;11.578;2022-10-22T06:02:29;3.90;;;0.80;;
982;SDS011;480;48.124;11.578;2022-10-22T06:04:56;0.80;;;0.60;;
982;SDS011;480;48.124;11.578;2022-10-22T06:07:24;0.50;;;0.47;;
982;SDS011;480;48.124;11.578;2022-10-22T06:09:52;0.70;;;0.70;;
982;SDS011;480;48.124;11.578;2022-10-22T06:12:19;2.47;;;0.90;;
982;SDS011;480;48.124;11.578;2022-10-22T06:14:47;1.03;;;0.40;;
982;SDS011;480;48.124;11.578;2022-10-22T06:17:15;0.83;;;0.70;;
982;SDS011;480;48.124;11.578;2022-10-22T06:19:43;1.23;;;1.00;;
982;SDS011;480;48.124;11.578;2022-10-22T06:22:10;1.40;;;0.80;;
982;SDS011;480;48.124;11.578;2022-10-22T06:24:37;0.93;;;0.60;;
982;SDS011;480;48.124;11.578;2022-10-22T06:27:06;1.17;;;0.83;;
982;SDS011;480;48.124;11.578;2022-10-22T06:29:33;1.07;;;0.60;;
982;SDS011;480;48.124;11.578;2022-10-22T06:32:00;1.17;;;0.90;;
982;SDS011;480;48.124;11.578;2022-10-22T06:34:26;0.63;;;0.57;;
982;SDS011;480;48.124;11.578;2022-10-22T06:36:53;1.47;;;0.73;;
982;SDS011;480;48.124;11.578;2022-10-22T06:39:20;1.77;;;0.60;;
982;SDS011;480;48.124;11.578;2022-10-22T06:41:47;0.80;;;0.80;;
982;SDS011;480;48.124;11.578;2022-10-22T06:44:17;0.57;;;0.57;;
982;SDS011;480;48.124;11.578;2022-10-22T06:46:44;1.87;;;0.70;;
982;SDS011;480;48.124;11.578;2022-10-22T06:49:16;3.43;;;0.70;;
982;SDS011;480;48.124;11.578;2022-10-22T06:51:43;0.50;;;0.50;;
982;SDS011;480;48.124;11.578;2022-10-22T06:54:11;0.93;;;0.60;;
982;SDS011;480;48.124;11.578;2022-10-22T06:56:38;1.30;;;1.00;;
982;SDS011;480;48.124;11.578;2022-10-22T06:59:05;0.70;;;0.70;;
982;SDS011;480;48.124;11.578;2022-10-22T07:01:33;0.70;;;0.60;;
982;SDS011;480;48.124;11.578;2022-10-22T07:04:01;0.80;;;0.70;;
982;SDS011;480;48.124;11.578;2022-10-22T07:06:30;0.50;;;0.50;;
982;SDS011;480;48.124;11.578;2022-10-22T07:08:57;0.70;;;0.70;;
982;SDS011;480;48.124;11.578;2022-10-22T07:11:25;0.70;;;0.70;;
982;SDS011;480;48.124;11.578;2022-10-22T07:13:54;1.23;;;0.90;;
982;SDS011;480;48.124;11.578;2022-10-22T07:16:22;0.70;;;0.60;;
982;SDS011;480;48.124;11.578;2022-10-22T07:18:50;0.60;;;0.60;;
982;SDS011;480;48.124;11.578;2022-10-22T07:21:17;0.70;;;0.70;;
982;SDS011;480;48.124;11.578;2022-10-22T07:23:46;0.40;;;0.40;;
982;SDS011;480;48.124;11.578;2022-10-22T07:26:14;0.90;;;0.90;;
982;SDS011;480;48.124;11.578;2022-10-22T07:28:44;1.77;;;0.60;;
982;SDS011;480;48.124;11.578;2022-10-22T07:31:12;0.63;;;0.60;;
982;SDS011;480;48.124;11.578;2022-10-22T07:33:40;1.07;;;0.60;;
982;SDS011;480;48.124;11.578;2022-10-22T07:36:10;0.67;;;0.67;;
982;SDS011;480;48.124;11.578;2022-10-22T07:38:41;0.80;;;0.60;;
982;SDS011;480;48.124;11.578;2022-10-22T07:41:08;0.87;;;0.57;;
982;SDS011;480;48.124;11.578;2022-10-22T07:43:36;0.70;;;0.70;;
982;SDS011;480;48.124;11.578;2022-10-22T07:46:03;0.50;;;0.50;;
982;SDS011;480;48.124;11.578;2022-10-22T07:48:32;0.53;;;0.53;;
982;SDS011;480;48.124;11.578;2022-10-22T07:51:00;0.67;;;0.67;;
982;SDS011;480;48.124;11.578;2022-10-22T07:53:29;1.47;;;0.60;;
982;SDS011;480;48.124;11.578;2022-10-22T07:55:56;1.60;;;0.97;;
982;SDS011;480;48.124;11.578;2022-10-22T07:58:23;0.60;;;0.60;;
982;SDS011;480;48.124;11.578;2022-10-22T08:00:53;0.70;;;0.60;;
982;SDS011;480;48.124;11.578;2022-10-22T08:03:20;2.00;;;0.70;;
982;SDS011;480;48.124;11.578;2022-10-22T08:05:47;0.97;;;0.70;;
982;SDS011;480;48.124;11.578;2022-10-22T08:08:14;1.10;;;1.00;;
982;SDS011;480;48.124;11.578;2022-10-22T08:10:43;0.83;;;0.83;;
982;SDS011;480;48.124;11.578;2022-10-22T08:13:12;1.13;;;1.00;;
982;SDS011;480;48.124;11.578;2022-10-22T08:15:39;1.47;;;0.80;;
982;SDS011;480;48.124;11.578;2022-10-22T08:18:07;1.30;;;0.70;;
982;SDS011;480;48.124;11.578;2022-10-22T08:20:35;0.80;;;0.70;;
982;SDS011;480;48.124;11.578;2022-10-22T08:23:02;0.50;;;0.50;;
982;SDS011;480;48.124;11.578;2022-10-22T08:25:29;0.97;;;0.77;;
982;SDS011;480;48.124;11.578;2022-10-22T08:27:58;0.97;;;0.80;;
982;SDS011;480;48.124;11.578;2022-10-22T08:30:25;1.90;;;0.90;;
982;SDS011;480;48.124;11.578;2022-10-22T08:32:54;0.87;;;0.80;;
982;SDS011;480;48.124;11.578;2022-10-22T08:35:20;0.60;;;0.60;;
982;SDS011;480;48.124;11.578;2022-10-22T08:37:47;1.13;;;0.77;;
982;SDS011;480;48.124;11.578;2022-10-22T08:40:18;0.60;;;0.60;;
982;SDS011;480;48.124;11.578;2022-10-22T08:43:03;0.60;;;0.60;;
982;SDS011;480;48.124;11.578;2022-10-22T08:45:49;0.80;;;0.80;;
982;SDS011;480;48.124;11.578;2022-10-22T08:48:32;0.90;;;0.70;;
982;SDS011;480;48.124;11.578;2022-10-22T08:51:10;0.53;;;0.53;;
982;SDS011;480;48.124;11.578;2022-10-22T08:53:41;0.90;;;0.90;;
982;SDS011;480;48.124;11.578;2022-10-22T08:56:31;0.80;;;0.73;;
982;SDS011;480;48.124;11.578;2022-10-22T08:59:03;0.70;;;0.70;;
982;SDS011;480;48.124;11.578;2022-10-22T09:01:37;1.07;;;0.90;;
982;SDS011;480;48.124;11.578;2022-10-22T09:04:10;0.60;;;0.47;;
982;SDS011;480;48.124;11.578;2022-10-22T09:06:43;1.90;;;0.73;;
982;SDS011;480;48.124;11.578;2022-10-22T09:09:12;1.07;;;0.90;;
982;SDS011;480;48.124;11.578;2022-10-22T09:11:42;1.27;;;0.80;;
982;SDS011;480;48.124;11.578;2022-10-22T09:14:13;0.80;;;0.80;;
982;SDS011;480;48.124;11.578;2022-10-22T09:16:48;0.97;;;0.93;;
982;SDS011;480;48.124;11.578;2022-10-22T09:19:40;1.70;;;1.00;;
982;SDS011;480;48.124;11.578;2022-10-22T09:22:17;1.70;;;0.83;;
982;SDS011;480;48.124;11.578;2022-10-22T09:24:53;3.60;;;2.77;;
982;SDS011;480;48.124;11.578;2022-10-22T09:27:25;1.33;;;1.23;;
982;SDS011;480;48.124;11.578;2022-10-22T09:29:56;1.63;;;1.40;;
982;SDS011;480;48.124;11.578;2022-10-22T09:32:24;1.20;;;1.10;;
982;SDS011;480;48.124;11.578;2022-10-22T09:34:53;1.60;;;1.43;;
982;SDS011;480;48.124;11.578;2022-10-22T09:37:24;1.60;;;0.97;;
982;SDS011;480;48.124;11.578;2022-10-22T09:39:53;1.20;;;1.10;;
982;SDS011;480;48.124;11.578;2022-10-22T09:42:23;1.00;;;0.90;;
982;SDS011;480;48.124;11.578;2022-10-22T09:44:51;1.00;;;0.90;;
982;SDS011;480;48.124;11.578;2022-10-22T09:47:30;1.13;;;0.90;;
982;SDS011;480;48.124;11.578;2022-10-22T09:50:17;1.73;;;0.70;;
982;SDS011;480;48.124;11.578;2022-10-22T09:52:53;1.00;;;0.90;;
982;SDS011;480;48.124;11.578;2022-10-22T09:55:24;1.43;;;1.17;;
982;SDS011;480;48.124;11.578;2022-10-22T09:57:52;0.90;;;0.80;;
982;SDS011;480;48.124;11.578;2022-10-22T10:00:20;1.73;;;0.80;;
982;SDS011;480;48.124;11.578;2022-10-22T10:02:54;0.70;;;0.70;;
982;SDS011;480;48.124;11.578;2022-10-22T10:05:26;1.63;;;1.33;;
982;SDS011;480;48.124;11.578;2022-10-22T10:07:54;2.20;;;1.00;;
982;SDS011;480;48.124;11.578;2022-10-22T10:10:26;1.40;;;1.10;;
982;SDS011;480;48.124;11.578;2022-10-22T10:13:00;1.73;;;1.00;;
982;SDS011;480;48.124;11.578;2022-10-22T10:15:39;0.80;;;0.80;;
982;SDS011;480;48.124;11.578;2022-10-22T10:18:18;1.90;;;0.90;;
982;SDS011;480;48.124;11.578;2022-10-22T10:20:55;1.23;;;1.13;;
982;SDS011;480;48.124;11.578;2022-10-22T10:23:32;0.83;;;0.80;;
982;SDS011;480;48.124;11.578;2022-10-22T10:26:08;2.13;;;1.83;;
982;SDS011;480;48.124;11.578;2022-10-22T10:28:44;1.00;;;0.63;;
982;SDS011;480;48.124;11.578;2022-10-22T10:31:30;1.90;;;1.10;;
982;SDS011;480;48.124;11.578;2022-10-22T10:34:08;1.10;;;1.00;;
982;SDS011;480;48.124;11.578;2022-10-22T10:36:43;0.80;;;0.80;;
982;SDS011;480;48.124;11.578;2022-10-22T10:39:17;1.07;;;0.90;;
982;SDS011;480;48.124;11.578;2022-10-22T10:41:51;1.00;;;1.00;;
982;SDS011;480;48.124;11.578;2022-10-22T10:44:35;1.80;;;1.60;;
982;SDS011;480;48.124;11.578;2022-10-22T10:47:20;2.67;;;1.00;;
982;SDS011;480;48.124;11.578;2022-10-22T10:50:04;2.97;;;1.30;;
982;SDS011;480;48.124;11.578;2022-10-22T10:52:43;0.80;;;0.70;;
982;SDS011;480;48.124;11.578;2022-10-22T10:55:19;2.30;;;1.07;;
982;SDS011;480;48.124;11.578;2022-10-22T10:57:55;1.90;;;1.07;;
982;SDS011;480;48.124;11.578;2022-10-22T11:00:28;0.93;;;0.83;;
982;SDS011;480;48.124;11.578;2022-10-22T11:03:11;1.50;;;1.27;;
982;SDS011;480;48.124;11.578;2022-10-22T11:06:07;1.10;;;1.10;;
982;SDS011;480;48.124;11.578;2022-10-22T11:08:38;1.10;;;1.10;;
982;SDS011;480;48.124;11.578;2022-10-22T11:11:10;1.30;;;1.20;;
982;SDS011;480;48.124;11.578;2022-10-22T11:13:42;1.17;;;1.07;;
982;SDS011;480;48.124;11.578;2022-10-22T11:16:16;1.03;;;0.77;;
982;SDS011;480;48.124;11.578;2022-10-22T11:18:47;1.00;;;0.90;;
982;SDS011;480;48.124;11.578;2022-10-22T11:21:22;0.80;;;0.80;;
982;SDS011;480;48.124;11.578;2022-10-22T11:23:55;1.20;;;0.80;;
982;SDS011;480;48.124;11.578;2022-10-22T11:26:31;0.93;;;0.93;;
982;SDS011;480;48.124;11.578;2022-10-22T11:29:03;1.67;;;1.00;;
982;SDS011;480;48.124;11.578;2022-10-22T11:31:36;1.20;;;1.10;;
982;SDS011;480;48.124;11.578;2022-10-22T11:34:11;0.83;;;0.70;;
982;SDS011;480;48.124;11.578;2022-10-22T11:36:45;1.50;;;1.40;;
982;SDS011;480;48.124;11.578;2022-10-22T11:39:27;0.90;;;0.80;;
982;SDS011;480;48.124;11.578;2022-10-22T11:42:01;1.33;;;0.70;;
982;SDS011;480;48.124;11.578;2022-10-22T11:44:30;1.37;;;0.70;;
982;SDS011;480;48.124;11.578;2022-10-22T11:47:16;1.03;;;1.00;;
982;SDS011;480;48.124;11.578;2022-10-22T11:49:54;0.70;;;0.50;;
982;SDS011;480;48.124;11.578;2022-10-22T11:52:36;1.20;;;0.80;;
982;SDS011;480;48.124;11.578;2022-10-22T11:55:32;0.80;;;0.80;;
982;SDS011;480;48.124;11.578;2022-10-22T11:58:24;0.70;;;0.70;;
982;SDS011;480;48.124;11.578;2022-10-22T12:01:16;0.53;;;0.53;;
982;SDS011;480;48.124;11.578;2022-10-22T12:03:51;0.60;;;0.60;;
982;SDS011;480;48.124;11.578;2022-10-22T12:06:50;0.80;;;0.70;;
982;SDS011;480;48.124;11.578;2022-10-22T12:09:29;0.63;;;0.50;;
982;SDS011;480;48.124;11.578;2022-10-22T12:12:02;0.70;;;0.70;;
982;SDS011;480;48.124;11.578;2022-10-22T12:14:38;0.73;;;0.73;;
982;SDS011;480;48.124;11.578;2022-10-22T12:17:19;0.73;;;0.60;;
982;SDS011;480;48.124;11.578;2022-10-22T12:19:48;0.93;;;0.80;;
982;SDS011;480;48.124;11.578;2022-10-22T12:22:25;0.80;;;0.80;;
982;SDS011;480;48.124;11.578;2022-10-22T12:24:55;0.80;;;0.80;;
982;SDS011;480;48.124;11.578;2022-10-22T12:27:27;1.37;;;0.90;;
982;SDS011;480;48.124;11.578;2022-10-22T12:30:00;4.30;;;1.00;;
982;SDS011;480;48.124;11.578;2022-10-22T12:32:42;0.77;;;0.77;;
982;SDS011;480;48.124;11.578;2022-10-22T12:35:14;1.17;;;0.90;;
982;SDS011;480;48.124;11.578;2022-10-22T12:37:43;0.93;;;0.77;;
982;SDS011;480;48.124;11.578;2022-10-22T12:40:19;0.83;;;0.83;;
982;SDS011;480;48.124;11.578;2022-10-22T12:42:49;0.83;;;0.80;;
982;SDS011;480;48.124;11.578;2022-10-22T12:45:20;0.80;;;0.63;;
982;SDS011;480;48.124;11.578;2022-10-22T12:47:54;0.73;;;0.60;;
982;SDS011;480;48.124;11.578;2022-10-22T12:50:25;0.90;;;0.90;;
982;SDS011;480;48.124;11.578;2022-10-22T12:52:58;3.23;;;1.00;;
982;SDS011;480;48.124;11.578;2022-10-22T12:55:27;1.90;;;0.80;;
982;SDS011;480;48.124;11.578;2022-10-22T12:57:58;2.50;;;0.90;;
982;SDS011;480;48.124;11.578;2022-10-22T13:00:31;3.10;;;1.03;;
982;SDS011;480;48.124;11.578;2022-10-22T13:03:02;0.90;;;0.80;;
982;SDS011;480;48.124;11.578;2022-10-22T13:05:32;0.60;;;0.60;;
982;SDS011;480;48.124;11.578;2022-10-22T13:08:04;0.80;;;0.80;;
982;SDS011;480;48.124;11.578;2022-10-22T13:10:38;0.97;;;0.80;;
982;SDS011;480;48.124;11.578;2022-10-22T13:16:14;0.70;;;0.70;;
982;SDS011;480;48.124;11.578;2022-10-22T13:18:44;2.83;;;1.07;;
982;SDS011;480;48.124;11.578;2022-10-22T13:24:00;1.67;;;1.13;;
982;SDS011;480;48.124;11.578;2022-10-22T13:26:33;1.17;;;1.00;;
982;SDS011;480;48.124;11.578;2022-10-22T13:29:02;1.47;;;1.37;;
982;SDS011;480;48.124;11.578;2022-10-22T13:31:43;1.00;;;0.80;;
982;SDS011;480;48.124;11.578;2022-10-22T13:34:12;2.60;;;1.10;;
982;SDS011;480;48.124;11.578;2022-10-22T13:36:42;1.87;;;0.87;;
982;SDS011;480;48.124;11.578;2022-10-22T13:39:11;1.43;;;1.20;;
982;SDS011;480;48.124;11.578;2022-10-22T13:41:42;0.90;;;0.80;;
982;SDS011;480;48.124;11.578;2022-10-22T13:44:10;0.87;;;0.80;;
982;SDS011;480;48.124;11.578;2022-10-22T13:46:37;1.17;;;0.87;;
982;SDS011;480;48.124;11.578;2022-10-22T13:49:08;1.53;;;0.87;;
982;SDS011;480;48.124;11.578;2022-10-22T13:51:40;1.60;;;1.00;;
982;SDS011;480;48.124;11.578;2022-10-22T13:54:08;0.80;;;0.80;;
982;SDS011;480;48.124;11.578;2022-10-22T13:56:40;0.80;;;0.77;;
982;SDS011;480;48.124;11.578;2022-10-22T13:59:09;1.70;;;1.00;;
982;SDS011;480;48.124;11.578;2022-10-22T14:01:36;1.07;;;0.90;;
982;SDS011;480;48.124;11.578;2022-10-22T14:04:04;1.17;;;0.90;;
982;SDS011;480;48.124;11.578;2022-10-22T14:06:33;1.80;;;1.10;;
982;SDS011;480;48.124;11.578;2022-10-22T14:09:01;1.47;;;1.37;;
982;SDS011;480;48.124;11.578;2022-10-22T14:11:30;1.40;;;1.10;;
982;SDS011;480;48.124;11.578;2022-10-22T14:13:59;0.93;;;0.90;;
982;SDS011;480;48.124;11.578;2022-10-22T14:16:29;1.00;;;0.90;;
982;SDS011;480;48.124;11.578;2022-10-22T14:18:58;4.03;;;1.27;;
982;SDS011;480;48.124;11.578;2022-10-22T14:21:26;2.50;;;1.23;;
982;SDS011;480;48.124;11.578;2022-10-22T14:23:55;1.40;;;0.90;;
982;SDS011;480;48.124;11.578;2022-10-22T14:26:23;2.17;;;0.90;;
982;SDS011;480;48.124;11.578;2022-10-22T14:28:53;1.73;;;1.10;;
982;SDS011;480;48.124;11.578;2022-10-22T14:31:20;1.00;;;0.80;;
982;SDS011;480;48.124;11.578;2022-10-22T14:33:48;1.20;;;1.10;;
982;SDS011;480;48.124;11.578;2022-10-22T14:36:16;4.53;;;2.07;;
982;SDS011;480;48.124;11.578;2022-10-22T14:38:44;1.43;;;1.23;;
982;SDS011;480;48.124;11.578;2022-10-22T14:41:15;1.23;;;0.90;;
982;SDS011;480;48.124;11.578;2022-10-22T14:43:45;1.83;;;1.10;;
982;SDS011;480;48.124;11.578;2022-10-22T14:46:13;1.17;;;1.07;;
982;SDS011;480;48.124;11.578;2022-10-22T14:48:42;0.70;;;0.70;;
982;SDS011;480;48.124;11.578;2022-10-22T14:51:12;3.33;;;1.07;;
982;SDS011;480;48.124;11.578;2022-10-22T14:53:41;3.50;;;2.13;;
982;SDS011;480;48.124;11.578;2022-10-22T14:56:09;3.13;;;1.30;;
982;SDS011;480;48.124;11.578;2022-10-22T14:58:37;1.53;;;1.40;;
982;SDS011;480;48.124;11.578;2022-10-22T15:01:04;2.50;;;1.40;;
982;SDS011;480;48.124;11.578;2022-10-22T15:03:32;1.47;;;1.37;;
982;SDS011;480;48.124;11.578;2022-10-22T15:06:00;1.97;;;1.00;;
982;SDS011;480;48.124;11.578;2022-10-22T15:08:28;2.40;;;1.17;;
982;SDS011;480;48.124;11.578;2022-10-22T15:10:56;0.80;;;0.77;;
982;SDS011;480;48.124;11.578;2022-10-22T15:13:24;1.83;;;1.40;;
982;SDS011;480;48.124;11.578;2022-10-22T15:15:53;1.33;;;1.20;;
982;SDS011;480;48.124;11.578;2022-10-22T15:18:20;2.77;;;1.33;;
982;SDS011;480;48.124;11.578;2022-10-22T15:20:57;2.93;;;1.10;;
982;SDS011;480;48.124;11.578;2022-10-22T15:23:26;3.67;;;1.57;;
982;SDS011;480;48.124;11.578;2022-10-22T15:25:58;1.90;;;1.30;;
982;SDS011;480;48.124;11.578;2022-10-22T15:28:25;2.27;;;1.10;;
982;SDS011;480;48.124;11.578;2022-10-22T15:30:53;0.90;;;0.90;;
982;SDS011;480;48.124;11.578;2022-10-22T15:33:20;1.90;;;1.27;;
982;SDS011;480;48.124;11.578;2022-10-22T15:35:48;1.57;;;1.00;;
982;SDS011;480;48.124;11.578;2022-10-22T15:38:18;1.10;;;1.00;;
982;SDS011;480;48.124;11.578;2022-10-22T15:40:45;1.43;;;1.13;;
982;SDS011;480;48.124;11.578;2022-10-22T15:43:14;1.40;;;1.20;;
982;SDS011;480;48.124;11.578;2022-10-22T15:45:41;1.10;;;1.10;;
982;SDS011;480;48.124;11.578;2022-10-22T15:48:08;1.07;;;0.97;;
982;SDS011;480;48.124;11.578;2022-10-22T15:50:36;4.40;;;1.67;;
982;SDS011;480;48.124;11.578;2022-10-22T15:53:03;1.70;;;1.50;;
982;SDS011;480;48.124;11.578;2022-10-22T15:55:31;1.73;;;1.13;;
982;SDS011;480;48.124;11.578;2022-10-22T15:57:58;2.90;;;2.13;;
982;SDS011;480;48.124;11.578;2022-10-22T16:00:26;2.60;;;2.03;;